Time;durP1;ratioP1;P1;durP2;ratioP2;P2;SDS_P1;SDS_P2;PMS_P1;PMS_P2;Temp;Humidity;BMP_temperature;BMP_pressure;BME280_temperature;BME280_humidity;BME280_pressure;Samples;Min_cycle;Max_cycle;Signal;HPM_P1;HPM_P2
2022/09/10 00:00:12;;;;;;;2.87;1.70;;;;;;;20.33;56.04;99608.13;4146269;28;20287;-33
2022/09/10 00:02:13;;;;;;;3.60;1.50;;;;;;;19.58;58.23;99614.50;4138131;28;20258;-32
2022/09/10 00:04:16;;;;;;;1.50;1.40;;;;;;;20.46;56.93;99551.22;4141754;28;20244;-32
2022/09/10 00:06:18;;;;;;;2.63;1.63;;;;;;;19.88;57.73;99585.75;4142713;28;20229;-31
2022/09/10 00:08:20;;;;;;;3.23;1.60;;;;;;;19.85;58.29;99570.03;4144312;28;20237;-33
2022/09/10 00:10:22;;;;;;;3.73;1.57;;;;;;;20.28;57.90;99535.06;4141374;28;20754;-31
2022/09/10 00:12:24;;;;;;;3.23;1.60;;;;;;;21.18;55.53;99513.34;4149526;28;20321;-34
2022/09/10 00:14:26;;;;;;;2.67;1.50;;;;;;;19.04;60.41;99608.69;4147097;28;20230;-34
2022/09/10 00:16:29;;;;;;;3.77;1.60;;;;;;;20.15;58.36;99525.25;4146150;28;20308;-31
2022/09/10 00:18:30;;;;;;;4.67;1.90;;;;;;;19.91;58.80;99535.09;4140791;28;20244;-32
2022/09/10 00:20:32;;;;;;;3.87;1.70;;;;;;;20.61;56.50;99545.41;4146214;28;20259;-32
2022/09/10 00:22:34;;;;;;;4.17;1.63;;;;;;;19.51;59.22;99596.47;4145920;28;20314;-34
2022/09/10 00:24:35;;;;;;;1.37;1.27;;;;;;;18.41;62.58;99610.28;4145906;28;20228;-31
2022/09/10 00:26:38;;;;;;;3.43;1.43;;;;;;;20.66;57.46;99485.31;4148473;28;20365;-34
2022/09/10 00:28:41;;;;;;;2.93;1.67;;;;;;;20.98;56.78;99473.13;4148911;28;20242;-33
2022/09/10 00:30:45;;;;;;;1.90;1.33;;;;;;;18.96;60.83;99607.09;4147143;28;20254;-30
2022/09/10 00:32:51;;;;;;;1.90;1.70;;;;;;;19.93;58.90;99538.41;4143239;28;20217;-32
2022/09/10 00:34:53;;;;;;;6.23;1.87;;;;;;;19.51;59.47;99582.19;4142810;28;20296;-32
2022/09/10 00:36:55;;;;;;;4.10;1.40;;;;;;;19.30;59.22;99589.63;4141339;28;21116;-32
2022/09/10 00:39:01;;;;;;;3.07;1.50;;;;;;;20.75;56.86;99517.16;4148601;28;20264;-32
2022/09/10 00:41:07;;;;;;;1.67;1.20;;;;;;;19.88;58.87;99553.38;4141389;28;20863;-31
2022/09/10 00:43:13;;;;;;;2.77;1.30;;;;;;;18.45;61.46;99624.97;4141509;28;20746;-31
2022/09/10 00:45:20;;;;;;;4.20;1.50;;;;;;;18.73;61.14;99596.88;4140077;28;20798;-30
2022/09/10 00:47:27;;;;;;;3.03;1.40;;;;;;;19.24;60.09;99550.06;4142971;28;20315;-31
2022/09/10 00:49:44;;;;;;;1.40;1.30;;;;;;;19.49;59.61;99520.38;4145197;28;20645;-30
2022/09/10 00:51:49;;;;;;;3.23;1.40;;;;;;;18.44;61.90;99596.38;4140420;28;20269;-31
2022/09/10 00:53:53;;;;;;;3.07;1.40;;;;;;;19.87;59.10;99507.75;4146081;28;20667;-32
2022/09/10 00:55:59;;;;;;;1.73;1.40;;;;;;;19.04;61.46;99542.16;4143683;28;20256;-30
2022/09/10 00:58:05;;;;;;;4.07;1.40;;;;;;;19.22;60.11;99568.34;4144470;28;20237;-34
2022/09/10 01:00:10;;;;;;;3.17;1.33;;;;;;;18.30;62.74;99598.31;4138451;28;20262;-32
2022/09/10 01:02:13;;;;;;;1.57;1.30;;;;;;;20.56;58.28;99456.16;4147160;28;20694;-35
2022/09/10 01:04:15;;;;;;;3.60;1.47;;;;;;;20.39;57.96;99491.91;4144502;28;20236;-32
2022/09/10 01:06:18;;;;;;;2.77;1.20;;;;;;;21.16;56.60;99442.47;4142901;28;20703;-32
2022/09/10 01:08:19;;;;;;;3.63;1.40;;;;;;;21.27;56.25;99477.84;4146754;28;20713;-32
2022/09/10 01:10:29;;;;;;;3.43;1.43;;;;;;;21.50;55.26;99496.75;4143581;28;20785;-31
2022/09/10 01:12:52;;;;;;;7.27;1.80;;;;;;;21.51;55.38;99511.91;4141619;28;20228;-32
2022/09/10 01:14:57;;;;;;;2.00;1.40;;;;;;;21.33;55.41;99541.81;4140607;28;20240;-30
2022/09/10 01:17:05;;;;;;;1.80;1.27;;;;;;;19.21;59.86;99649.41;4151823;28;20636;-31
2022/09/10 01:19:31;;;;;;;3.00;1.33;;;;;;;20.96;56.98;99528.50;4141401;28;20310;-31
2022/09/10 01:22:15;;;;;;;4.00;1.80;;;;;;;19.87;58.23;99635.38;4148208;28;20721;-33
2022/09/10 01:24:23;;;;;;;2.67;1.53;;;;;;;20.88;55.91;99610.69;4140784;28;20233;-31
2022/09/10 01:26:44;;;;;;;7.33;1.90;;;;;;;19.69;58.64;99656.94;4142691;28;20324;-31
2022/09/10 01:29:08;;;;;;;2.03;1.63;;;;;;;20.66;56.36;99629.28;4142539;28;20312;-35
2022/09/10 01:31:22;;;;;;;2.27;1.43;;;;;;;19.04;60.55;99670.69;4144354;28;20253;-31
2022/09/10 01:33:30;;;;;;;5.33;1.83;;;;;;;19.68;59.41;99634.53;4142845;28;20241;-31
2022/09/10 01:35:42;;;;;;;2.57;1.40;;;;;;;19.66;59.93;99622.31;4139725;28;20744;-31
2022/09/10 01:37:48;;;;;;;3.40;2.00;;;;;;;20.45;58.61;99568.50;4143663;28;20244;-32
2022/09/10 01:39:52;;;;;;;1.90;1.50;;;;;;;19.67;59.05;99632.91;4140018;28;20262;-32
2022/09/10 01:41:54;;;;;;;1.50;1.40;;;;;;;20.65;57.22;99579.03;4145696;28;20228;-31
2022/09/10 01:43:56;;;;;;;3.33;2.20;;;;;;;22.09;54.18;99514.75;4142626;28;20265;-31
2022/09/10 01:46:00;;;;;;;4.63;1.90;;;;;;;21.20;56.01;99586.09;4141610;28;20314;-33
2022/09/10 01:48:27;;;;;;;3.77;1.80;;;;;;;19.25;59.82;99677.56;4139887;28;20711;-32
2022/09/10 01:51:03;;;;;;;4.07;1.70;;;;;;;20.61;57.99;99565.13;4137816;28;20305;-34
2022/09/10 01:53:36;;;;;;;4.20;1.87;;;;;;;21.73;54.93;99546.47;4148698;28;20690;-31
2022/09/10 01:56:15;;;;;;;5.70;2.00;;;;;;;21.50;54.84;99583.28;4142503;28;20316;-32
2022/09/10 01:58:32;;;;;;;4.50;2.00;;;;;;;22.67;53.06;99509.31;4142778;28;20227;-35
2022/09/10 02:00:37;;;;;;;4.00;2.10;;;;;;;21.71;54.43;99627.91;4142585;28;20256;-34
2022/09/10 02:02:42;;;;;;;3.50;1.90;;;;;;;21.39;55.81;99629.28;4141893;28;20256;-33
2022/09/10 02:04:46;;;;;;;3.60;1.97;;;;;;;21.17;56.33;99635.22;4144594;28;20287;-32
2022/09/10 02:06:50;;;;;;;4.67;2.00;;;;;;;21.59;54.53;99640.56;4143295;28;20319;-30
2022/09/10 02:08:53;;;;;;;2.70;1.63;;;;;;;22.15;53.80;99583.34;4140592;28;20244;-31
2022/09/10 02:10:58;;;;;;;2.43;1.70;;;;;;;21.33;56.20;99623.75;4143064;28;25368;-32
2022/09/10 02:13:00;;;;;;;4.10;1.87;;;;;;;21.60;55.14;99600.84;4138509;28;20249;-32
2022/09/10 02:15:03;;;;;;;6.90;2.23;;;;;;;22.46;53.34;99550.41;4141141;28;20249;-35
2022/09/10 02:17:05;;;;;;;4.60;1.70;;;;;;;21.90;54.14;99611.56;4144644;28;20253;-31
2022/09/10 02:19:07;;;;;;;3.60;1.70;;;;;;;20.67;57.83;99630.94;4142530;28;20767;-32
2022/09/10 02:21:10;;;;;;;3.30;1.97;;;;;;;22.04;54.89;99547.94;4135990;28;20325;-33
2022/09/10 02:23:17;;;;;;;3.97;1.70;;;;;;;22.37;53.65;99576.25;4145645;28;20260;-31
2022/09/10 02:25:19;;;;;;;1.80;1.70;;;;;;;22.65;53.27;99563.75;4140007;28;20260;-33
2022/09/10 02:27:22;;;;;;;2.53;1.60;;;;;;;22.74;52.73;99564.16;4147215;28;20261;-31
2022/09/10 02:29:24;;;;;;;2.67;1.80;;;;;;;22.18;53.87;99609.94;4140359;28;20722;-32
2022/09/10 02:31:25;;;;;;;4.33;2.53;;;;;;;22.18;53.51;99612.66;4139983;28;20247;-34
2022/09/10 02:33:27;;;;;;;4.23;1.50;;;;;;;21.98;53.71;99634.72;4144168;28;20237;-32
2022/09/10 02:35:30;;;;;;;2.30;1.80;;;;;;;22.62;52.54;99594.03;4142154;28;20269;-32
2022/09/10 02:37:31;;;;;;;3.07;1.53;;;;;;;23.02;52.13;99561.44;4140947;28;20255;-33
2022/09/10 02:39:34;;;;;;;2.43;1.70;;;;;;;22.23;54.17;99596.50;4137416;28;20363;-32
2022/09/10 02:41:39;;;;;;;2.93;1.50;;;;;;;22.31;53.61;99600.78;4140492;28;20283;-32
2022/09/10 02:43:41;;;;;;;2.23;1.80;;;;;;;22.79;52.50;99569.69;4136292;28;20264;-33
2022/09/10 02:45:43;;;;;;;2.60;1.50;;;;;;;23.25;51.78;99556.91;4142799;28;20510;-32
2022/09/10 02:47:45;;;;;;;3.30;1.70;;;;;;;23.28;51.30;99561.84;4143980;28;20327;-33
2022/09/10 02:49:47;;;;;;;4.53;1.77;;;;;;;21.33;55.16;99661.59;4142828;28;20264;-32
2022/09/10 02:51:51;;;;;;;2.90;2.00;;;;;;;21.20;55.22;99667.22;4141466;28;20306;-33
2022/09/10 02:53:54;;;;;;;4.50;1.80;;;;;;;22.81;52.69;99549.41;4142379;28;20271;-32
2022/09/10 02:55:56;;;;;;;2.93;1.80;;;;;;;21.85;54.66;99603.28;4138646;28;20268;-33
2022/09/10 02:57:58;;;;;;;2.67;1.70;;;;;;;22.18;53.54;99589.09;4142966;28;20260;-33
2022/09/10 03:00:01;;;;;;;2.50;1.73;;;;;;;22.73;52.79;99541.69;4146525;28;20782;-31
2022/09/10 03:02:03;;;;;;;1.77;1.37;;;;;;;22.14;53.75;99600.69;4141045;28;20312;-33
2022/09/10 03:04:05;;;;;;;6.40;2.13;;;;;;;22.33;53.25;99593.22;4141538;28;20582;-32
2022/09/10 03:06:07;;;;;;;3.17;1.53;;;;;;;22.43;53.06;99572.56;4142926;28;20324;-31
2022/09/10 03:08:09;;;;;;;4.40;1.57;;;;;;;22.16;52.76;99628.34;4143799;28;20267;-36
2022/09/10 03:10:10;;;;;;;6.73;1.73;;;;;;;20.94;56.54;99617.88;4143389;28;20317;-33
2022/09/10 03:12:14;;;;;;;1.87;1.37;;;;;;;23.10;52.34;99497.84;4144138;28;20312;-35
2022/09/10 03:14:19;;;;;;;2.47;1.63;;;;;;;22.50;52.97;99568.91;4145204;28;20619;-32
2022/09/10 03:16:22;;;;;;;5.23;1.90;;;;;;;22.04;53.70;99591.28;4148980;28;20252;-31
2022/09/10 03:18:26;;;;;;;4.10;1.70;;;;;;;20.89;55.27;99650.19;4143324;28;20252;-33
2022/09/10 03:20:28;;;;;;;4.67;1.60;;;;;;;21.96;54.63;99551.03;4138826;28;20316;-36
2022/09/10 03:22:30;;;;;;;3.53;1.60;;;;;;;21.96;53.29;99602.47;4142959;28;20351;-35
2022/09/10 03:24:32;;;;;;;2.93;1.90;;;;;;;21.50;55.22;99586.00;4142101;28;20236;-32
2022/09/10 03:26:34;;;;;;;7.27;1.97;;;;;;;20.11;58.36;99599.63;4142120;28;20311;-31
2022/09/10 03:28:36;;;;;;;1.60;1.50;;;;;;;19.97;57.88;99642.13;4138688;28;20661;-34
2022/09/10 03:30:39;;;;;;;3.97;1.70;;;;;;;21.73;54.72;99543.78;4146056;28;20236;-30
2022/09/10 03:32:41;;;;;;;5.30;1.70;;;;;;;20.02;58.06;99643.09;4142219;28;20320;-31
2022/09/10 03:34:43;;;;;;;4.97;1.80;;;;;;;20.68;56.70;99604.75;4146129;28;20430;-34
2022/09/10 03:36:46;;;;;;;3.17;1.70;;;;;;;21.96;54.12;99521.25;4142850;28;20708;-34
2022/09/10 03:38:48;;;;;;;3.73;1.50;;;;;;;21.72;54.34;99588.97;4142820;28;20218;-34
2022/09/10 03:40:51;;;;;;;2.10;1.70;;;;;;;20.72;57.33;99581.59;4143825;28;20726;-33
2022/09/10 03:42:53;;;;;;;6.00;1.80;;;;;;;22.06;53.93;99540.41;4139574;28;20232;-36
2022/09/10 03:44:55;;;;;;;3.90;2.23;;;;;;;21.69;54.62;99564.25;4141391;28;20265;-32
2022/09/10 03:46:57;;;;;;;4.00;1.63;;;;;;;21.11;56.18;99565.88;4142279;28;20280;-32
2022/09/10 03:49:01;;;;;;;3.33;1.47;;;;;;;20.59;56.68;99604.25;4142372;28;20229;-33
2022/09/10 03:51:03;;;;;;;3.07;1.70;;;;;;;21.32;56.08;99526.63;4145291;28;20298;-30
2022/09/10 03:53:05;;;;;;;4.93;1.90;;;;;;;19.47;59.47;99630.34;4147177;28;20327;-34
2022/09/10 03:55:07;;;;;;;2.87;1.63;;;;;;;21.94;54.69;99499.03;4147579;28;20264;-33
2022/09/10 03:57:08;;;;;;;3.40;1.80;;;;;;;21.69;54.68;99532.59;4153613;28;20367;-33
2022/09/10 03:59:13;;;;;;;6.40;1.90;;;;;;;20.01;58.18;99635.22;4146263;28;20243;-32
2022/09/10 04:01:16;;;;;;;1.80;1.60;;;;;;;21.27;55.71;99548.13;4141688;28;20458;-34
2022/09/10 04:03:19;;;;;;;6.37;1.73;;;;;;;22.14;54.14;99512.13;4148825;28;20236;-34
2022/09/10 04:05:20;;;;;;;4.67;1.80;;;;;;;22.57;53.19;99488.28;4146484;28;20704;-32
2022/09/10 04:07:22;;;;;;;5.03;1.80;;;;;;;22.13;53.90;99534.84;4153242;28;20974;-30
2022/09/10 04:09:23;;;;;;;3.97;1.80;;;;;;;21.32;55.81;99588.81;4140641;28;20256;-30
2022/09/10 04:11:26;;;;;;;3.67;1.57;;;;;;;21.46;54.80;99589.41;4140555;28;20316;-32
2022/09/10 04:13:28;;;;;;;2.37;1.70;;;;;;;21.95;53.34;99576.47;4145586;28;20293;-30
2022/09/10 04:15:29;;;;;;;3.57;1.90;;;;;;;21.35;54.76;99624.31;4140096;28;20264;-32
2022/09/10 04:17:31;;;;;;;3.17;1.80;;;;;;;21.81;54.32;99580.47;4142463;28;20252;-34
2022/09/10 04:19:34;;;;;;;5.67;2.20;;;;;;;21.31;55.64;99606.13;4144850;28;20681;-31
2022/09/10 04:21:35;;;;;;;2.83;2.03;;;;;;;22.44;53.01;99541.72;4144170;28;20351;-31
2022/09/10 04:23:40;;;;;;;3.13;1.70;;;;;;;22.68;52.60;99525.34;4145609;28;20265;-31
2022/09/10 04:25:41;;;;;;;2.60;1.73;;;;;;;22.33;53.32;99561.53;4143582;28;20696;-31
2022/09/10 04:27:44;;;;;;;2.17;1.73;;;;;;;22.08;53.09;99591.59;4150418;28;20234;-32
2022/09/10 04:29:47;;;;;;;2.50;1.60;;;;;;;21.06;56.17;99625.22;4142345;28;20665;-30
2022/09/10 04:31:49;;;;;;;3.73;1.63;;;;;;;22.18;54.05;99553.09;4143652;28;20272;-31
2022/09/10 04:33:51;;;;;;;4.40;1.73;;;;;;;21.68;54.32;99609.44;4143079;28;20237;-31
2022/09/10 04:35:53;;;;;;;2.73;1.70;;;;;;;22.56;52.58;99538.13;4141972;28;20699;-32
2022/09/10 04:37:54;;;;;;;3.37;1.80;;;;;;;22.81;52.14;99551.28;4142298;28;20346;-31
2022/09/10 04:39:56;;;;;;;3.07;1.60;;;;;;;22.19;53.53;99587.25;4142579;28;20253;-31
2022/09/10 04:41:58;;;;;;;5.50;2.03;;;;;;;22.34;52.92;99598.41;4140731;28;20316;-32
2022/09/10 04:43:59;;;;;;;3.33;1.77;;;;;;;22.07;53.62;99620.56;4147730;28;20282;-33
2022/09/10 04:46:01;;;;;;;3.70;1.90;;;;;;;22.13;53.90;99604.44;4145139;28;20299;-31
2022/09/10 04:48:03;;;;;;;2.20;1.70;;;;;;;22.58;52.69;99574.75;4133903;28;20648;-32
2022/09/10 04:50:08;;;;;;;1.83;1.40;;;;;;;22.55;52.89;99580.63;4142151;28;20247;-35
2022/09/10 04:52:10;;;;;;;3.37;1.70;;;;;;;22.01;54.00;99621.50;4150984;28;20232;-34
2022/09/10 04:54:13;;;;;;;1.67;1.50;;;;;;;21.35;54.91;99664.06;4142023;28;20741;-33
2022/09/10 04:56:16;;;;;;;2.70;1.53;;;;;;;22.34;53.53;99584.03;4145658;28;20312;-35
2022/09/10 04:58:18;;;;;;;4.70;1.93;;;;;;;21.89;53.99;99632.38;4147711;28;20229;-31
2022/09/10 05:00:20;;;;;;;1.70;1.60;;;;;;;22.05;53.87;99600.19;4143336;28;20232;-32
2022/09/10 05:02:21;;;;;;;2.67;1.80;;;;;;;22.07;53.32;99617.06;4139691;28;20605;-31
2022/09/10 05:04:24;;;;;;;4.83;1.70;;;;;;;22.18;53.69;99585.59;4146478;28;20264;-34
2022/09/10 05:06:25;;;;;;;6.43;1.63;;;;;;;21.92;54.19;99625.66;4138424;28;20232;-31
2022/09/10 05:08:27;;;;;;;3.43;1.80;;;;;;;22.38;52.74;99596.84;4150201;28;20513;-32
2022/09/10 05:10:28;;;;;;;3.87;1.87;;;;;;;22.19;53.23;99614.31;4142156;28;20261;-33
2022/09/10 05:12:30;;;;;;;4.43;2.40;;;;;;;21.51;54.74;99660.69;4153318;28;20319;-31
2022/09/10 05:14:32;;;;;;;6.57;2.23;;;;;;;22.54;53.12;99584.44;4143217;28;20271;-33
2022/09/10 05:16:35;;;;;;;3.50;1.80;;;;;;;22.37;53.00;99603.34;4140558;28;20260;-30
2022/09/10 05:18:38;;;;;;;3.03;1.90;;;;;;;22.37;53.08;99602.50;4138254;28;20265;-31
2022/09/10 05:20:43;;;;;;;4.30;1.70;;;;;;;23.11;51.47;99567.25;4143697;28;20295;-33
2022/09/10 05:22:45;;;;;;;4.57;1.63;;;;;;;22.78;52.46;99589.75;4132880;28;20581;-30
2022/09/10 05:24:46;;;;;;;5.37;1.60;;;;;;;21.83;54.25;99651.44;4139006;28;20311;-33
2022/09/10 05:26:48;;;;;;;4.37;2.00;;;;;;;20.40;57.41;99684.47;4143307;28;20785;-33
2022/09/10 05:28:52;;;;;;;4.90;2.20;;;;;;;22.46;53.26;99571.28;4145869;28;20622;-32
2022/09/10 05:30:53;;;;;;;2.50;2.00;;;;;;;22.13;53.89;99601.72;4143433;28;20215;-31
2022/09/10 05:32:55;;;;;;;2.90;1.70;;;;;;;22.23;53.64;99586.50;4143730;28;20282;-33
2022/09/10 05:34:57;;;;;;;3.37;1.90;;;;;;;21.84;54.52;99620.59;4149432;28;20259;-33
2022/09/10 05:36:58;;;;;;;4.83;2.27;;;;;;;21.10;56.39;99648.03;4139561;28;20324;-34
2022/09/10 05:39:02;;;;;;;5.63;1.90;;;;;;;19.47;59.78;99694.22;4142849;28;20317;-34
2022/09/10 05:41:05;;;;;;;1.97;1.67;;;;;;;21.04;57.02;99609.25;4144761;28;20324;-32
2022/09/10 05:43:07;;;;;;;4.17;2.37;;;;;;;21.59;54.85;99610.81;4145246;28;20247;-32
2022/09/10 05:45:09;;;;;;;2.97;1.67;;;;;;;21.97;53.47;99603.31;4150223;28;20725;-31
2022/09/10 05:47:10;;;;;;;1.70;1.60;;;;;;;21.70;55.02;99585.69;4140935;28;20280;-33
2022/09/10 05:49:12;;;;;;;3.57;1.77;;;;;;;21.71;55.11;99578.38;4142688;28;20320;-31
2022/09/10 05:51:14;;;;;;;3.60;1.83;;;;;;;21.79;53.96;99602.38;4145826;28;20261;-33
2022/09/10 05:53:16;;;;;;;5.17;2.00;;;;;;;20.91;56.94;99622.94;4140230;28;20653;-35
2022/09/10 05:55:18;;;;;;;4.07;1.73;;;;;;;20.47;57.47;99666.31;4145327;28;20276;-31
2022/09/10 05:57:19;;;;;;;4.03;1.63;;;;;;;21.70;55.20;99569.44;4146345;28;20324;-31
2022/09/10 05:59:23;;;;;;;6.87;1.83;;;;;;;20.05;57.63;99685.84;4137520;28;20264;-33
2022/09/10 06:01:25;;;;;;;2.27;1.73;;;;;;;21.83;54.72;99587.31;4139858;28;20232;-33
2022/09/10 06:03:26;;;;;;;4.07;1.93;;;;;;;21.09;56.19;99649.91;4140249;28;20463;-35
2022/09/10 06:05:28;;;;;;;2.70;2.20;;;;;;;20.61;56.67;99670.47;4141639;28;20245;-30
2022/09/10 06:07:31;;;;;;;3.67;1.90;;;;;;;20.86;56.65;99655.22;4141557;28;20705;-34
2022/09/10 06:09:33;;;;;;;2.23;1.60;;;;;;;21.47;55.96;99586.47;4138306;28;20315;-32
2022/09/10 06:11:35;;;;;;;2.93;1.80;;;;;;;21.08;57.38;99598.78;4149908;28;20263;-33
2022/09/10 06:13:38;;;;;;;4.20;1.70;;;;;;;19.48;59.90;99699.38;4137033;28;20266;-32
2022/09/10 06:15:40;;;;;;;2.67;1.87;;;;;;;20.83;56.36;99652.97;4139067;28;20320;-31
2022/09/10 06:17:42;;;;;;;3.37;1.80;;;;;;;21.32;56.81;99586.94;4140898;28;20316;-35
2022/09/10 06:19:47;;;;;;;3.00;1.90;;;;;;;22.57;53.15;99545.19;4136542;28;20341;-31
2022/09/10 06:21:51;;;;;;;2.20;1.97;;;;;;;20.40;55.98;99706.09;4148518;28;20259;-31
2022/09/10 06:23:53;;;;;;;3.23;2.00;;;;;;;20.92;57.29;99629.97;4143591;28;20320;-31
2022/09/10 06:26:07;;;;;;;6.20;1.80;;;;;;;21.62;55.33;99610.34;4144263;28;20263;-32
2022/09/10 06:28:09;;;;;;;2.17;1.87;;;;;;;21.20;56.93;99621.25;4141586;28;20771;-35
2022/09/10 06:30:11;;;;;;;3.67;2.10;;;;;;;21.65;54.86;99633.44;4139487;28;20309;-32
2022/09/10 06:32:13;;;;;;;2.70;2.00;;;;;;;21.37;55.41;99643.03;4141751;28;20703;-31
2022/09/10 06:34:17;;;;;;;3.17;2.23;;;;;;;21.77;54.74;99631.56;4145649;28;20723;-31
2022/09/10 06:36:19;;;;;;;2.00;1.67;;;;;;;20.95;57.23;99646.56;4141922;28;20656;-31
2022/09/10 06:38:22;;;;;;;3.40;1.87;;;;;;;20.50;57.79;99690.19;4142810;28;20221;-32
2022/09/10 06:40:26;;;;;;;2.63;2.10;;;;;;;19.86;59.12;99713.88;4141477;28;20653;-30
2022/09/10 06:42:28;;;;;;;2.47;2.00;;;;;;;20.72;58.34;99632.94;4142040;28;20227;-30
2022/09/10 06:44:30;;;;;;;3.67;2.10;;;;;;;20.68;57.86;99658.78;4140207;28;20319;-31
2022/09/10 06:46:31;;;;;;;5.13;1.87;;;;;;;20.97;57.30;99641.78;4140198;28;20332;-32
2022/09/10 06:48:53;;;;;;;3.33;1.77;;;;;;;19.66;60.03;99705.94;4139137;28;20603;-32
2022/09/10 06:51:00;;;;;;;2.40;1.73;;;;;;;21.54;56.62;99575.53;4141195;28;20268;-31
2022/09/10 06:53:02;;;;;;;4.63;2.20;;;;;;;22.03;54.92;99570.66;4140987;28;20240;-33
2022/09/10 06:55:04;;;;;;;2.90;1.90;;;;;;;20.81;58.51;99626.19;4140346;28;20253;-34
2022/09/10 06:57:06;;;;;;;3.97;2.60;;;;;;;21.41;56.74;99603.66;4150729;28;20274;-31
2022/09/10 06:59:08;;;;;;;2.20;1.90;;;;;;;21.46;56.26;99606.47;4141246;28;20268;-35
2022/09/10 07:01:19;;;;;;;4.33;1.93;;;;;;;21.08;57.45;99626.63;4140191;28;20308;-36
2022/09/10 07:03:21;;;;;;;4.23;1.80;;;;;;;20.43;58.21;99697.50;4145292;28;20671;-32
2022/09/10 07:05:23;;;;;;;4.03;1.80;;;;;;;21.52;56.40;99619.03;4142879;28;20308;-34
2022/09/10 07:07:24;;;;;;;4.47;2.13;;;;;;;20.66;58.52;99672.50;4138576;28;20275;-33
2022/09/10 07:09:26;;;;;;;5.07;1.93;;;;;;;20.94;58.21;99653.00;4140495;28;20536;-31
2022/09/10 07:11:31;;;;;;;4.77;2.10;;;;;;;21.78;56.29;99597.19;4141801;28;20233;-31
2022/09/10 07:13:34;;;;;;;2.50;1.70;;;;;;;20.52;58.67;99685.38;4146170;28;20267;-32
2022/09/10 07:15:35;;;;;;;3.80;2.00;;;;;;;19.71;60.38;99735.78;4135860;28;20331;-31
2022/09/10 07:17:37;;;;;;;1.80;1.50;;;;;;;20.93;57.41;99691.06;4140133;28;20595;-30
2022/09/10 07:19:39;;;;;;;4.03;2.30;;;;;;;20.04;60.00;99696.88;4139384;28;20356;-31
2022/09/10 07:21:40;;;;;;;5.40;1.90;;;;;;;20.71;58.09;99686.16;4144314;28;20738;-33
2022/09/10 07:23:43;;;;;;;3.57;1.70;;;;;;;20.35;59.48;99695.13;4144803;28;20264;-32
2022/09/10 07:25:46;;;;;;;3.37;1.93;;;;;;;20.47;58.38;99681.72;4146390;28;20232;-30
2022/09/10 07:27:49;;;;;;;3.20;1.80;;;;;;;20.64;58.95;99654.91;4147691;28;20276;-31
2022/09/10 07:29:51;;;;;;;4.17;2.00;;;;;;;20.69;58.49;99660.44;4144032;28;20814;-32
2022/09/10 07:31:52;;;;;;;3.27;1.90;;;;;;;22.16;55.08;99585.81;4147409;28;20296;-34
2022/09/10 07:33:57;;;;;;;1.93;1.70;;;;;;;20.62;58.19;99706.44;4147099;28;20256;-31
2022/09/10 07:35:59;;;;;;;1.60;1.50;;;;;;;19.99;59.36;99737.19;4145328;28;20369;-33
2022/09/10 07:38:05;;;;;;;2.90;1.80;;;;;;;20.83;58.13;99688.09;4145445;28;20259;-33
2022/09/10 07:40:07;;;;;;;2.80;1.73;;;;;;;21.77;55.93;99628.84;4147244;28;20710;-34
2022/09/10 07:42:10;;;;;;;2.10;1.50;;;;;;;20.92;57.01;99730.81;4152909;28;20252;-35
2022/09/10 07:44:12;;;;;;;4.37;1.87;;;;;;;22.16;55.03;99633.75;4139755;28;20237;-34
2022/09/10 07:46:20;;;;;;;2.77;1.57;;;;;;;20.37;58.65;99742.44;4145392;28;20264;-32
2022/09/10 07:48:21;;;;;;;2.20;2.00;;;;;;;21.44;56.80;99659.16;4150615;28;20674;-31
2022/09/10 07:50:23;;;;;;;2.17;1.50;;;;;;;21.27;57.08;99694.16;4143954;28;20260;-31
2022/09/10 07:52:25;;;;;;;1.63;1.50;;;;;;;21.30;56.59;99705.31;4151260;28;20259;-31
2022/09/10 07:54:27;;;;;;;3.37;1.83;;;;;;;20.97;57.09;99725.56;4143398;28;20257;-32
2022/09/10 07:56:30;;;;;;;3.63;1.60;;;;;;;22.19;54.90;99644.91;4145324;28;20233;-32
2022/09/10 07:58:34;;;;;;;2.87;1.80;;;;;;;22.09;54.63;99669.06;4144269;28;20255;-31
2022/09/10 08:00:37;;;;;;;2.30;2.10;;;;;;;22.51;54.94;99643.69;4146436;28;20220;-31
2022/09/10 08:02:41;;;;;;;4.33;2.00;;;;;;;21.80;55.59;99709.56;4144166;28;20328;-32
2022/09/10 08:04:45;;;;;;;1.73;1.30;;;;;;;20.38;58.99;99754.06;4143154;28;20770;-33
2022/09/10 08:06:46;;;;;;;4.40;1.60;;;;;;;21.73;55.94;99677.22;4150357;28;20237;-32
2022/09/10 08:08:48;;;;;;;4.40;1.50;;;;;;;22.00;55.37;99667.78;4143992;28;20532;-35
2022/09/10 08:10:50;;;;;;;3.13;1.50;;;;;;;22.37;54.50;99664.81;4143293;28;20662;-33
2022/09/10 08:12:51;;;;;;;4.07;1.40;;;;;;;20.30;57.79;99786.75;4147492;28;20636;-34
2022/09/10 08:14:55;;;;;;;3.97;1.80;;;;;;;22.17;54.97;99666.00;4140704;28;20262;-33
2022/09/10 08:16:57;;;;;;;2.50;1.43;;;;;;;21.86;55.75;99691.56;4143557;28;20253;-32
2022/09/10 08:18:59;;;;;;;3.00;1.70;;;;;;;20.57;57.80;99782.75;4142239;28;20585;-31
2022/09/10 08:21:02;;;;;;;2.53;1.37;;;;;;;21.86;55.74;99689.66;4141896;28;20584;-32
2022/09/10 08:23:05;;;;;;;5.13;1.80;;;;;;;21.28;57.07;99712.03;4143078;28;20322;-32
2022/09/10 08:25:07;;;;;;;1.40;1.20;;;;;;;22.04;54.93;99710.38;4141856;28;20269;-31
2022/09/10 08:27:10;;;;;;;2.80;1.50;;;;;;;23.51;52.22;99625.13;4142767;28;20233;-33
2022/09/10 08:29:12;;;;;;;1.87;1.47;;;;;;;22.62;53.62;99730.38;4138583;28;20308;-34
2022/09/10 08:31:15;;;;;;;6.43;3.50;;;;;;;21.38;56.49;99770.94;4144684;28;20234;-33
2022/09/10 08:33:17;;;;;;;3.73;2.50;;;;;;;21.19;55.73;99795.34;4140870;28;20237;-31
2022/09/10 08:35:19;;;;;;;5.43;2.37;;;;;;;20.87;58.11;99744.19;4144594;28;20320;-35
2022/09/10 08:37:21;;;;;;;4.30;1.70;;;;;;;22.56;53.96;99673.59;4142042;28;20253;-34
2022/09/10 08:39:23;;;;;;;2.07;1.50;;;;;;;20.79;56.51;99806.63;4142039;28;21049;-30
2022/09/10 08:41:37;;;;;;;2.83;1.50;;;;;;;21.50;55.46;99761.00;4140531;28;20238;-30
2022/09/10 08:43:46;;;;;;;7.27;1.90;;;;;;;21.75;55.59;99763.56;4139225;28;20284;-34
2022/09/10 08:45:49;;;;;;;3.70;1.87;;;;;;;21.96;54.88;99740.50;4138455;28;20324;-30
2022/09/10 08:48:14;;;;;;;2.53;1.50;;;;;;;21.07;57.59;99772.84;4135787;28;20260;-33
2022/09/10 08:50:36;;;;;;;3.77;1.63;;;;;;;22.57;54.47;99661.69;4137620;28;20317;-31
2022/09/10 08:52:47;;;;;;;4.47;1.50;;;;;;;22.48;54.14;99698.38;4132825;28;20276;-31
2022/09/10 08:54:49;;;;;;;4.50;2.03;;;;;;;20.73;57.28;99815.63;4132075;28;20325;-33
2022/09/10 08:56:54;;;;;;;2.70;1.67;;;;;;;21.69;54.95;99756.38;4142663;28;20255;-33
2022/09/10 08:59:01;;;;;;;5.03;1.47;;;;;;;22.35;53.87;99721.91;4143244;28;20324;-31
2022/09/10 09:01:05;;;;;;;3.90;1.47;;;;;;;21.94;54.08;99774.31;4145271;28;20240;-32
2022/09/10 09:03:41;;;;;;;6.60;1.90;;;;;;;22.47;53.97;99724.63;4149448;28;20244;-31
2022/09/10 09:05:45;;;;;;;5.57;1.53;;;;;;;22.69;53.46;99726.69;4142738;28;20273;-32
2022/09/10 09:07:49;;;;;;;2.63;1.90;;;;;;;22.74;53.26;99730.34;4143581;28;20324;-32
2022/09/10 09:09:51;;;;;;;2.53;1.43;;;;;;;21.41;56.29;99792.13;4143390;28;20260;-34
2022/09/10 09:11:55;;;;;;;2.07;1.60;;;;;;;22.89;53.32;99716.25;4144215;28;20252;-30
2022/09/10 09:14:22;;;;;;;4.63;1.70;;;;;;;22.71;53.84;99705.59;4141955;28;20609;-35
2022/09/10 09:17:21;;;;;;;4.47;1.97;;;;;;;22.85;52.87;99739.50;4147568;28;20237;-32
2022/09/10 09:19:39;;;;;;;1.90;1.30;;;;;;;20.43;57.31;99829.84;4132840;28;20735;-31
2022/09/10 09:21:55;;;;;;;3.70;1.40;;;;;;;22.03;54.12;99740.41;4141938;28;20260;-32
2022/09/10 09:23:57;;;;;;;4.80;1.60;;;;;;;22.07;54.88;99719.94;4143615;28;20275;-31
2022/09/10 09:26:14;;;;;;;5.60;2.00;;;;;;;22.73;53.34;99711.59;4143292;28;20706;-30
2022/09/10 09:28:19;;;;;;;3.43;1.60;;;;;;;23.45;52.43;99659.50;4142795;28;20710;-31
2022/09/10 09:30:26;;;;;;;4.30;1.77;;;;;;;22.49;53.52;99757.72;4144486;28;20264;-34
2022/09/10 09:32:34;;;;;;;2.40;1.43;;;;;;;22.96;52.31;99718.84;4142645;28;20692;-31
2022/09/10 09:34:45;;;;;;;3.57;1.77;;;;;;;22.97;52.09;99723.22;4143665;28;20525;-32
2022/09/10 09:36:50;;;;;;;4.50;1.73;;;;;;;23.59;51.27;99687.16;4136327;28;20720;-31
2022/09/10 09:38:52;;;;;;;4.17;1.33;;;;;;;21.43;53.96;99827.91;4139143;28;20657;-33
2022/09/10 09:41:06;;;;;;;5.70;1.73;;;;;;;22.31;53.69;99763.28;4144546;28;20248;-31
2022/09/10 09:43:37;;;;;;;6.83;1.40;;;;;;;23.84;50.10;99685.91;4143689;28;20764;-32
2022/09/10 09:45:44;;;;;;;3.93;1.50;;;;;;;23.01;51.57;99762.31;4140015;28;20237;-30
2022/09/10 09:47:46;;;;;;;2.67;1.60;;;;;;;23.05;51.13;99751.81;4145180;28;20229;-33